createdAt,value
2019-03-12T00:00:49.009Z,8.25
2019-03-12T00:03:15.627Z,2.40
2019-03-12T00:05:43.231Z,11.57
2019-03-12T00:08:09.933Z,4.30
2019-03-12T00:10:36.848Z,9.40
2019-03-12T00:13:03.968Z,5.17
2019-03-12T00:15:32.542Z,6.03
2019-03-12T00:18:01.152Z,10.78
2019-03-12T00:20:28.679Z,9.98
2019-03-12T00:22:55.302Z,6.35
2019-03-12T00:25:22.419Z,4.92
2019-03-12T00:27:49.627Z,5.30
2019-03-12T00:30:16.295Z,4.42
2019-03-12T00:32:43.663Z,16.35
2019-03-12T00:35:10.286Z,4.17
2019-03-12T00:37:37.207Z,6.83
2019-03-12T00:40:04.760Z,5.25
2019-03-12T00:42:31.704Z,6.47
2019-03-12T00:44:58.383Z,4.67
2019-03-12T00:47:25.019Z,10.90
2019-03-12T00:49:51.951Z,5.70
2019-03-12T00:52:19.607Z,11.73
2019-03-12T00:54:46.835Z,7.22
2019-03-12T00:57:14.806Z,9.63
2019-03-12T00:59:41.435Z,12.53
2019-03-12T01:02:08.387Z,8.35
2019-03-12T01:04:35.466Z,5.72
2019-03-12T01:07:03.408Z,5.12
2019-03-12T01:09:31.063Z,7.12
2019-03-12T01:11:58.926Z,3.52
2019-03-12T01:14:25.895Z,3.80
2019-03-12T01:16:53.535Z,4.87
2019-03-12T01:19:20.478Z,8.08
2019-03-12T01:21:47.212Z,7.40
2019-03-12T01:24:14.166Z,5.75
2019-03-12T01:26:41.210Z,9.38
2019-03-12T01:29:08.160Z,8.60
2019-03-12T01:31:35.511Z,8.18
2019-03-12T01:34:02.462Z,7.28
2019-03-12T01:36:29.810Z,5.53
2019-03-12T01:38:57.887Z,5.92
2019-03-12T01:41:26.375Z,5.25
2019-03-12T01:43:53.922Z,10.08
2019-03-12T01:46:20.711Z,4.25
2019-03-12T01:48:47.711Z,7.55
2019-03-12T01:51:14.650Z,6.30
2019-03-12T01:53:41.618Z,5.60
2019-03-12T01:56:08.795Z,8.15
2019-03-12T01:58:37.843Z,8.93
2019-03-12T02:01:04.891Z,15.35
2019-03-12T02:03:36.027Z,16.85
2019-03-12T02:06:03.794Z,8.40
2019-03-12T02:08:30.438Z,14.20
2019-03-12T02:10:57.058Z,10.80
2019-03-12T02:13:24.631Z,7.08
2019-03-12T02:15:51.609Z,5.95
2019-03-12T02:18:20.034Z,10.75
2019-03-12T02:20:47.735Z,11.18
2019-03-12T02:23:14.467Z,4.75
2019-03-12T02:25:41.543Z,6.53
2019-03-12T02:28:08.263Z,7.08
2019-03-12T02:30:34.911Z,7.22
2019-03-12T02:33:01.636Z,6.35
2019-03-12T02:35:28.611Z,6.37
2019-03-12T02:37:55.435Z,9.85
2019-03-12T02:40:23.887Z,4.58
2019-03-12T02:42:50.500Z,10.08
2019-03-12T02:45:18.204Z,4.35
2019-03-12T02:47:45.353Z,9.93
2019-03-12T02:50:12.402Z,10.32
2019-03-12T02:52:41.798Z,6.75
2019-03-12T02:55:08.843Z,6.55
2019-03-12T02:57:35.815Z,8.60
2019-03-12T03:00:03.420Z,5.78
2019-03-12T03:02:30.775Z,8.88
2019-03-12T03:04:59.505Z,7.65
2019-03-12T03:08:01.122Z,13.60
2019-03-12T03:10:28.312Z,16.12
2019-03-12T03:12:55.376Z,12.45
2019-03-12T03:15:23.195Z,11.03
2019-03-12T03:17:50.027Z,11.15
2019-03-12T03:20:19.215Z,10.00
2019-03-12T03:22:47.629Z,2.90
2019-03-12T03:25:15.085Z,8.75
2019-03-12T03:27:42.336Z,9.30
2019-03-12T03:30:11.631Z,6.47
2019-03-12T03:32:38.394Z,9.55
2019-03-12T03:35:05.485Z,7.17
2019-03-12T03:37:32.567Z,10.85
2019-03-12T03:39:59.831Z,12.80
2019-03-12T03:42:26.613Z,5.80
2019-03-12T03:44:53.608Z,9.38
2019-03-12T03:47:22.096Z,17.92
2019-03-12T03:49:49.345Z,15.08
2019-03-12T03:52:16.295Z,12.43
2019-03-12T03:54:42.956Z,12.55
2019-03-12T03:57:09.585Z,10.60
2019-03-12T03:59:36.305Z,9.13
2019-03-12T04:02:02.953Z,10.08
2019-03-12T04:04:30.020Z,8.98
2019-03-12T04:06:57.265Z,19.27
2019-03-12T04:09:24.320Z,11.70
2019-03-12T04:11:51.265Z,13.10
2019-03-12T04:14:17.899Z,15.83
2019-03-12T04:16:44.537Z,21.80
2019-03-12T04:19:11.297Z,14.23
2019-03-12T04:21:38.404Z,14.20
2019-03-12T04:24:05.056Z,22.90
2019-03-12T04:26:32.028Z,18.07
2019-03-12T04:29:00.671Z,27.13
2019-03-12T04:31:27.325Z,17.57
2019-03-12T04:34:13.956Z,17.12
2019-03-12T04:36:40.979Z,25.05
2019-03-12T04:39:07.611Z,27.80
2019-03-12T04:41:36.537Z,22.93
2019-03-12T04:44:03.460Z,55.17
2019-03-12T04:46:30.576Z,24.25
2019-03-12T04:48:57.831Z,23.92
2019-03-12T04:51:26.107Z,25.80
2019-03-12T04:53:54.575Z,43.02
2019-03-12T04:56:21.676Z,32.55
2019-03-12T04:58:48.590Z,39.70
2019-03-12T05:01:15.235Z,25.92
2019-03-12T05:03:42.155Z,33.80
2019-03-12T05:06:09.099Z,39.70
2019-03-12T05:08:36.353Z,45.03
2019-03-12T05:11:05.186Z,65.87
2019-03-12T05:13:32.390Z,28.73
2019-03-12T05:15:59.002Z,21.25
2019-03-12T05:18:26.026Z,23.05
2019-03-12T05:20:54.354Z,18.67
2019-03-12T05:23:21.351Z,23.10
2019-03-12T05:25:48.134Z,21.70
2019-03-12T05:28:14.747Z,26.02
2019-03-12T05:30:41.829Z,25.88
2019-03-12T05:33:08.574Z,40.20
2019-03-12T05:35:35.200Z,25.27
2019-03-12T05:38:03.102Z,20.08
2019-03-12T05:40:30.075Z,26.80
2019-03-12T05:42:57.379Z,24.47
2019-03-12T05:45:24.384Z,44.10
2019-03-12T05:47:51.263Z,32.67
2019-03-12T05:50:20.055Z,30.75
2019-03-12T05:52:49.163Z,28.20
2019-03-12T05:55:16.703Z,29.35
2019-03-12T05:57:43.751Z,37.00
2019-03-12T06:00:11.196Z,29.85
2019-03-12T06:02:39.384Z,44.13
2019-03-12T06:05:06.403Z,25.62
2019-03-12T06:07:33.679Z,21.20
2019-03-12T06:10:00.624Z,25.15
2019-03-12T06:12:27.611Z,33.20
2019-03-12T06:14:54.925Z,19.77
2019-03-12T06:17:22.280Z,31.37
2019-03-12T06:19:49.545Z,26.85
2019-03-12T06:22:16.644Z,27.60
2019-03-12T06:24:44.139Z,22.52
2019-03-12T06:27:12.111Z,19.70
2019-03-12T06:29:40.019Z,24.37
2019-03-12T06:32:19.403Z,27.10
2019-03-12T06:35:21.115Z,23.42
2019-03-12T06:37:58.007Z,20.92
2019-03-12T06:40:42.707Z,32.85
2019-03-12T06:43:32.362Z,24.70
2019-03-12T06:46:11.109Z,21.73
2019-03-12T06:48:57.348Z,28.45
2019-03-12T06:51:49.583Z,22.80
2019-03-12T06:54:34.428Z,33.85
2019-03-12T06:57:37.444Z,25.52
2019-03-12T07:00:32.455Z,23.18
2019-03-12T07:03:33.699Z,22.82
2019-03-12T07:06:22.539Z,32.75
2019-03-12T07:09:13.787Z,26.60
2019-03-12T07:11:53.526Z,27.82
2019-03-12T07:14:37.488Z,27.07
2019-03-12T07:17:09.123Z,28.07
2019-03-12T07:20:04.659Z,27.58
2019-03-12T07:22:41.208Z,20.00
2019-03-12T07:25:25.802Z,18.75
2019-03-12T07:28:11.855Z,22.22
2019-03-12T07:30:46.000Z,22.10
2019-03-12T07:33:32.143Z,29.30
2019-03-12T07:36:22.656Z,21.82
2019-03-12T07:38:55.559Z,20.32
2019-03-12T07:41:32.496Z,19.30
2019-03-12T07:44:26.587Z,15.43
2019-03-12T07:47:05.427Z,18.80
2019-03-12T07:49:51.153Z,19.37
2019-03-12T07:52:48.392Z,17.37
2019-03-12T07:55:32.560Z,22.10
2019-03-12T07:58:35.769Z,11.38
2019-03-12T08:01:15.067Z,12.07
2019-03-12T08:03:54.018Z,25.82
2019-03-12T08:06:38.710Z,30.70
2019-03-12T08:09:44.383Z,24.05
2019-03-12T08:12:24.951Z,18.52
2019-03-12T08:15:22.902Z,18.10
2019-03-12T08:17:57.395Z,21.45
2019-03-12T08:20:49.344Z,19.62
2019-03-12T08:23:25.239Z,15.35
2019-03-12T08:26:18.923Z,18.57
2019-03-12T08:29:18.287Z,12.47
2019-03-12T08:32:04.265Z,20.20
2019-03-12T08:34:38.866Z,18.42
2019-03-12T08:37:23.116Z,24.75
2019-03-12T08:40:08.458Z,18.60
2019-03-12T08:43:00.727Z,16.50
2019-03-12T08:45:34.396Z,13.63
2019-03-12T08:48:12.818Z,12.30
2019-03-12T08:50:57.939Z,15.20
2019-03-12T08:53:44.199Z,15.50
2019-03-12T08:56:39.760Z,20.60
2019-03-12T08:59:32.245Z,11.00
2019-03-12T09:02:07.471Z,13.80
2019-03-12T09:04:56.596Z,18.20
2019-03-12T09:07:38.268Z,15.90
2019-03-12T09:10:18.924Z,14.07
2019-03-12T09:13:03.977Z,19.67
2019-03-12T09:15:39.747Z,15.00
2019-03-12T09:18:28.847Z,20.90
2019-03-12T09:21:30.415Z,24.07
2019-03-12T09:24:23.192Z,14.30
2019-03-12T09:26:58.872Z,15.33
2019-03-12T09:29:44.518Z,17.47
2019-03-12T09:32:23.619Z,17.33
2019-03-12T09:35:15.602Z,12.97
2019-03-12T09:38:07.559Z,15.40
2019-03-12T09:40:54.136Z,14.87
2019-03-12T09:43:52.752Z,13.23
2019-03-12T09:46:31.324Z,14.00
2019-03-12T09:49:17.599Z,15.13
2019-03-12T09:51:53.994Z,15.70
2019-03-12T09:54:27.940Z,10.30
2019-03-12T09:57:14.111Z,14.70
2019-03-12T10:00:00.126Z,13.43
2019-03-12T10:02:58.723Z,21.20
2019-03-12T10:05:55.001Z,16.33
2019-03-12T10:08:41.368Z,14.33
2019-03-12T10:11:24.698Z,16.40
2019-03-12T10:14:04.579Z,18.67
2019-03-12T10:16:54.095Z,10.90
2019-03-12T10:19:39.167Z,11.80
2019-03-12T10:22:34.627Z,13.07
2019-03-12T10:25:21.160Z,15.13
2019-03-12T10:28:08.819Z,14.90
2019-03-12T10:30:48.016Z,15.03
2019-03-12T10:33:24.616Z,14.87
2019-03-12T10:36:10.194Z,13.10
2019-03-12T10:39:16.771Z,12.90
2019-03-12T10:41:51.395Z,9.40
2019-03-12T10:44:34.203Z,14.70
2019-03-12T10:47:09.247Z,14.07
2019-03-12T10:49:37.940Z,9.37
2019-03-12T10:52:05.191Z,10.63
2019-03-12T10:54:32.539Z,10.73
2019-03-12T10:57:00.161Z,10.60
2019-03-12T10:59:26.799Z,14.13
2019-03-12T11:01:53.753Z,12.63
2019-03-12T11:04:21.483Z,19.67
2019-03-12T11:06:48.451Z,14.30
2019-03-12T11:09:15.068Z,16.87
2019-03-12T11:11:41.707Z,19.83
2019-03-12T11:14:08.356Z,21.63
2019-03-12T11:16:34.984Z,18.43
2019-03-12T11:19:01.623Z,19.10
2019-03-12T11:21:28.733Z,25.83
2019-03-12T11:23:55.496Z,25.17
2019-03-12T11:26:22.623Z,19.07
2019-03-12T11:28:50.076Z,21.20
2019-03-12T11:31:21.849Z,16.93
2019-03-12T11:33:49.700Z,20.73
2019-03-12T11:36:16.332Z,16.13
2019-03-12T11:38:45.239Z,15.97
2019-03-12T11:41:12.328Z,20.47
2019-03-12T11:43:39.017Z,19.93
2019-03-12T11:46:06.221Z,21.77
2019-03-12T11:48:33.769Z,19.27
2019-03-12T11:51:00.422Z,22.40
2019-03-12T11:53:27.151Z,18.63
2019-03-12T11:55:55.171Z,21.10
2019-03-12T11:58:22.025Z,27.97
2019-03-12T12:00:54.711Z,17.93
2019-03-12T12:03:21.957Z,16.60
2019-03-12T12:05:50.042Z,19.10
2019-03-12T12:08:17.065Z,15.70
2019-03-12T12:10:44.143Z,23.10
2019-03-12T12:13:10.880Z,22.10
2019-03-12T12:15:37.621Z,24.23
2019-03-12T12:18:05.656Z,18.40
2019-03-12T12:20:32.300Z,18.77
2019-03-12T12:22:58.940Z,19.50
2019-03-12T12:25:25.631Z,22.20
2019-03-12T12:27:53.472Z,16.67
2019-03-12T12:30:20.488Z,15.73
2019-03-12T12:32:47.456Z,14.30
2019-03-12T12:35:15.091Z,18.03
2019-03-12T12:37:41.943Z,14.97
2019-03-12T12:40:10.043Z,20.03
2019-03-12T12:42:36.791Z,14.47
2019-03-12T12:45:03.996Z,18.20
2019-03-12T12:47:31.119Z,19.73
2019-03-12T12:49:58.511Z,18.30
2019-03-12T12:52:25.174Z,19.33
2019-03-12T12:54:52.609Z,11.20
2019-03-12T12:57:19.531Z,14.10
2019-03-12T12:59:47.560Z,13.23
2019-03-12T13:02:14.188Z,12.93
2019-03-12T13:04:41.127Z,10.33
2019-03-12T13:07:07.772Z,10.97
2019-03-12T13:09:34.403Z,11.60
2019-03-12T13:12:01.260Z,10.57
2019-03-12T13:14:40.787Z,9.50
2019-03-12T13:16:56.471Z,11.93
2019-03-12T13:19:23.655Z,8.57
2019-03-12T13:21:50.288Z,20.43
2019-03-12T13:24:16.943Z,11.30
2019-03-12T13:26:45.955Z,13.23
2019-03-12T13:29:12.968Z,10.63
2019-03-12T13:31:39.943Z,9.63
2019-03-12T13:34:07.571Z,11.33
2019-03-12T13:36:34.591Z,14.63
2019-03-12T13:39:01.249Z,12.80
2019-03-12T13:41:29.882Z,6.47
2019-03-12T13:43:56.851Z,11.40
2019-03-12T13:46:23.482Z,10.63
2019-03-12T13:48:50.132Z,14.20
2019-03-12T13:51:16.864Z,9.63
2019-03-12T13:53:43.604Z,15.43
2019-03-12T13:56:10.244Z,6.20
2019-03-12T13:58:40.619Z,10.27
2019-03-12T14:01:07.256Z,8.87
2019-03-12T14:03:33.906Z,7.50
2019-03-12T14:06:00.603Z,13.93
2019-03-12T14:08:28.544Z,14.93
2019-03-12T14:10:55.570Z,5.97
2019-03-12T14:13:22.319Z,10.10
2019-03-12T14:15:49.064Z,7.53
2019-03-12T14:18:15.708Z,8.43
2019-03-12T14:20:43.339Z,7.17
2019-03-12T14:23:10.687Z,7.47
2019-03-12T14:25:37.326Z,8.80
2019-03-12T14:28:03.983Z,13.50
2019-03-12T14:30:30.599Z,15.30
2019-03-12T14:32:57.268Z,10.97
2019-03-12T14:35:24.109Z,13.60
2019-03-12T14:37:51.347Z,16.80
2019-03-12T14:40:18.293Z,12.07
2019-03-12T14:42:45.387Z,10.20
2019-03-12T14:45:12.223Z,11.60
2019-03-12T14:47:38.851Z,10.40
2019-03-12T14:50:07.075Z,7.13
2019-03-12T14:52:35.874Z,10.00
2019-03-12T14:55:02.848Z,12.60
2019-03-12T14:57:31.303Z,13.40
2019-03-12T14:59:58.931Z,13.00
2019-03-12T15:02:26.631Z,15.53
2019-03-12T15:04:53.671Z,10.03
2019-03-12T15:07:20.646Z,11.23
2019-03-12T15:09:48.594Z,11.00
2019-03-12T15:12:15.839Z,13.43
2019-03-12T15:14:42.567Z,11.40
2019-03-12T15:17:09.524Z,13.73
2019-03-12T15:19:36.576Z,10.10
2019-03-12T15:22:03.411Z,8.67
2019-03-12T15:24:36.031Z,12.63
2019-03-12T15:27:02.531Z,7.40
2019-03-12T15:29:33.605Z,12.93
2019-03-12T15:32:04.471Z,11.20
2019-03-12T15:34:30.610Z,13.30
2019-03-12T15:36:58.295Z,8.73
2019-03-12T15:39:25.275Z,12.90
2019-03-12T15:41:52.037Z,9.13
2019-03-12T15:44:19.281Z,12.27
2019-03-12T15:46:46.307Z,9.03
2019-03-12T15:49:14.009Z,10.87
2019-03-12T15:51:40.659Z,5.33
2019-03-12T15:54:07.629Z,10.07
2019-03-12T15:56:34.679Z,7.00
2019-03-12T15:59:01.619Z,7.67
2019-03-12T16:01:28.331Z,10.50
2019-03-12T16:03:56.156Z,10.63
2019-03-12T16:06:26.095Z,16.50
2019-03-12T16:08:54.280Z,12.13
2019-03-12T16:11:21.633Z,7.67
2019-03-12T16:13:48.691Z,8.73
2019-03-12T16:16:15.777Z,11.00
2019-03-12T16:18:43.115Z,11.07
2019-03-12T16:21:10.159Z,19.30
2019-03-12T16:23:37.210Z,10.40
2019-03-12T16:26:03.943Z,7.37
2019-03-12T16:28:30.555Z,7.63
2019-03-12T16:30:58.399Z,8.87
2019-03-12T16:33:26.094Z,9.17
2019-03-12T16:35:53.163Z,9.30
2019-03-12T16:38:20.835Z,9.60
2019-03-12T16:40:47.755Z,13.00
2019-03-12T16:43:14.923Z,10.50
2019-03-12T16:45:41.998Z,19.00
2019-03-12T16:48:08.782Z,16.13
2019-03-12T16:50:35.503Z,9.00
2019-03-12T16:53:02.496Z,9.60
2019-03-12T16:55:29.327Z,14.80
2019-03-12T16:57:56.287Z,6.83
2019-03-12T17:00:22.928Z,10.57
2019-03-12T17:02:50.214Z,7.00
2019-03-12T17:05:17.931Z,6.97
2019-03-12T17:07:44.671Z,7.20
2019-03-12T17:10:11.562Z,10.23
2019-03-12T17:12:38.691Z,18.00
2019-03-12T17:15:06.326Z,13.13
2019-03-12T17:17:34.011Z,15.93
2019-03-12T17:20:00.869Z,7.80
2019-03-12T17:22:28.187Z,6.33
2019-03-12T17:24:54.832Z,15.40
2019-03-12T17:27:22.280Z,12.10
2019-03-12T17:29:50.254Z,8.77
2019-03-12T17:32:16.891Z,10.93
2019-03-12T17:34:44.008Z,11.53
2019-03-12T17:37:10.667Z,13.37
2019-03-12T17:39:38.400Z,8.80
2019-03-12T17:42:05.284Z,9.07
2019-03-12T17:44:32.349Z,9.37
2019-03-12T17:46:59.512Z,7.97
2019-03-12T17:49:26.187Z,6.50
2019-03-12T17:51:52.929Z,6.20
2019-03-12T17:54:21.132Z,5.73
2019-03-12T17:56:48.143Z,8.40
2019-03-12T17:59:14.787Z,8.87
2019-03-12T18:01:41.443Z,9.20
2019-03-12T18:04:08.752Z,6.93
2019-03-12T18:06:35.755Z,8.40
2019-03-12T18:09:04.266Z,10.23
2019-03-12T18:11:32.962Z,9.63
2019-03-12T18:13:59.978Z,6.03
2019-03-12T18:16:39.983Z,9.87
2019-03-12T18:18:56.100Z,11.03
2019-03-12T18:21:23.359Z,14.83
2019-03-12T18:23:50.717Z,9.43
2019-03-12T18:26:19.378Z,8.80
2019-03-12T18:28:46.756Z,9.57
2019-03-12T18:31:13.803Z,18.17
2019-03-12T18:33:40.811Z,6.80
2019-03-12T18:36:08.308Z,10.33
2019-03-12T18:38:35.355Z,10.30
2019-03-12T18:41:03.256Z,11.80
2019-03-12T18:43:31.080Z,17.37
2019-03-12T18:45:58.160Z,12.60
2019-03-12T18:48:24.799Z,20.37
2019-03-12T18:50:52.572Z,12.00
2019-03-12T18:53:19.583Z,12.47
2019-03-12T18:56:07.223Z,7.93
2019-03-12T18:58:34.463Z,8.10
2019-03-12T19:01:02.620Z,13.10
2019-03-12T19:03:30.001Z,6.77
2019-03-12T19:05:56.971Z,6.90
2019-03-12T19:08:23.699Z,10.53
2019-03-12T19:10:50.859Z,9.10
2019-03-12T19:13:18.371Z,8.37
2019-03-12T19:15:45.014Z,15.27
2019-03-12T19:18:12.023Z,12.53
2019-03-12T19:20:39.061Z,19.43
2019-03-12T19:23:05.732Z,8.23
2019-03-12T19:25:32.405Z,9.83
2019-03-12T19:28:00.408Z,10.00
2019-03-12T19:30:28.180Z,8.03
2019-03-12T19:33:10.923Z,15.30
2019-03-12T19:35:38.498Z,20.82
2019-03-12T19:38:05.494Z,13.00
2019-03-12T19:40:32.591Z,19.27
2019-03-12T19:42:59.754Z,14.55
2019-03-12T19:45:26.795Z,12.05
2019-03-12T19:47:53.443Z,9.48
2019-03-12T19:50:21.933Z,15.57
2019-03-12T19:52:49.271Z,19.85
2019-03-12T19:55:17.132Z,12.03
2019-03-12T19:57:44.222Z,10.83
2019-03-12T20:00:12.474Z,8.47
2019-03-12T20:02:39.908Z,13.80
2019-03-12T20:05:06.862Z,7.47
2019-03-12T20:07:33.663Z,8.13
2019-03-12T20:10:17.183Z,7.45
2019-03-12T20:13:01.915Z,6.85
2019-03-12T20:15:48.050Z,12.43
2019-03-12T20:18:33.047Z,9.00
2019-03-12T20:21:11.291Z,7.17
2019-03-12T20:23:57.446Z,8.17
2019-03-12T20:26:50.258Z,9.53
2019-03-12T20:29:30.982Z,4.10
2019-03-12T20:32:29.056Z,16.07
2019-03-12T20:35:17.920Z,8.50
2019-03-12T20:38:03.572Z,8.53
2019-03-12T20:40:48.984Z,7.33
2019-03-12T20:43:36.131Z,8.47
2019-03-12T20:46:21.416Z,7.50
2019-03-12T20:49:11.397Z,47.77
2019-03-12T20:52:05.171Z,50.97
2019-03-12T20:55:06.793Z,17.00
2019-03-12T20:57:57.938Z,13.40
2019-03-12T21:00:43.291Z,22.83
2019-03-12T21:03:30.493Z,11.60
2019-03-12T21:06:22.753Z,17.00
2019-03-12T21:09:09.644Z,8.37
2019-03-12T21:11:54.795Z,6.43
2019-03-12T21:14:39.811Z,8.33
2019-03-12T21:17:36.235Z,6.07
2019-03-12T21:20:21.047Z,7.57
2019-03-12T21:23:06.116Z,3.87
2019-03-12T21:25:56.883Z,6.83
2019-03-12T21:28:36.999Z,12.60
2019-03-12T21:31:03.655Z,7.85
2019-03-12T21:33:31.914Z,7.08
2019-03-12T21:35:59.170Z,7.37
2019-03-12T21:38:27.984Z,8.78
2019-03-12T21:40:56.050Z,8.20
2019-03-12T21:43:23.285Z,7.78
2019-03-12T21:45:50.383Z,9.05
2019-03-12T21:48:17.590Z,5.37
2019-03-12T21:50:44.571Z,13.55
2019-03-12T21:53:11.248Z,6.00
2019-03-12T21:55:39.273Z,7.20
2019-03-12T21:58:07.122Z,7.30
2019-03-12T22:00:34.773Z,7.03
2019-03-12T22:03:06.317Z,6.03
2019-03-12T22:05:34.592Z,8.80
2019-03-12T22:08:01.871Z,7.37
2019-03-12T22:10:28.703Z,11.67
2019-03-12T22:12:55.371Z,9.65
2019-03-12T22:15:22.026Z,8.65
2019-03-12T22:17:50.757Z,6.20
2019-03-12T22:20:17.372Z,7.22
2019-03-12T22:22:51.762Z,4.95
2019-03-12T22:25:18.651Z,5.57
2019-03-12T22:27:45.374Z,4.40
2019-03-12T22:30:13.970Z,8.50
2019-03-12T22:32:41.262Z,10.32
2019-03-12T22:35:08.678Z,6.67
2019-03-12T22:37:35.714Z,4.37
2019-03-12T22:40:02.342Z,6.85
2019-03-12T22:42:29.191Z,12.03
2019-03-12T22:44:56.104Z,10.73
2019-03-12T22:47:22.737Z,6.40
2019-03-12T22:49:49.371Z,8.60
2019-03-12T22:52:16.703Z,13.50
2019-03-12T22:54:44.442Z,7.20
2019-03-12T22:57:11.427Z,5.95
2019-03-12T22:59:57.504Z,10.80
2019-03-12T23:02:43.123Z,7.62
2019-03-12T23:05:29.401Z,4.22
2019-03-12T23:08:14.823Z,7.65
2019-03-12T23:10:43.741Z,6.50
2019-03-12T23:13:12.295Z,4.97
2019-03-12T23:15:39.577Z,5.50
2019-03-12T23:18:06.819Z,4.65
2019-03-12T23:20:33.671Z,6.85
2019-03-12T23:23:02.154Z,7.60
2019-03-12T23:25:29.398Z,7.62
2019-03-12T23:27:57.272Z,5.53
2019-03-12T23:30:28.187Z,6.00
2019-03-12T23:32:53.977Z,8.10
2019-03-12T23:35:20.607Z,6.15
2019-03-12T23:37:48.207Z,8.88
2019-03-12T23:40:15.577Z,5.20
2019-03-12T23:42:43.950Z,6.95
2019-03-12T23:45:11.720Z,8.47
2019-03-12T23:47:38.516Z,6.00
2019-03-12T23:50:07.301Z,6.17
2019-03-12T23:52:34.599Z,5.67
2019-03-12T23:55:01.257Z,5.30
2019-03-12T23:57:28.287Z,5.13
2019-03-12T23:59:56.580Z,12.28
